Time;durP1;ratioP1;P1;durP2;ratioP2;P2;SDS_P1;SDS_P2;PMS_P1;PMS_P2;Temp;Humidity;BMP_temperature;BMP_pressure;BME280_temperature;BME280_humidity;BME280_pressure;Samples;Min_cycle;Max_cycle;Signal;HPM_P1;HPM_P2
2023/05/12 05:02:10;;;;;;;15.45;10.65;;;12.00;99.90;;;;;;5535501;23;20239;-69
2023/05/12 05:04:36;;;;;;;17.00;11.50;;;12.10;99.90;;;;;;4903193;29;20042;-68
2023/05/12 05:07:03;;;;;;;15.00;10.65;;;12.10;99.90;;;;;;4880398;29;20099;-69
2023/05/12 05:09:30;;;;;;;13.13;9.95;;;12.10;99.90;;;;;;4882611;29;20045;-69
2023/05/12 05:11:55;;;;;;;16.20;11.13;;;12.20;99.90;;;;;;4891600;29;20089;-70
2023/05/12 05:14:22;;;;;;;12.85;10.35;;;12.20;99.90;;;;;;4892033;29;20198;-69
2023/05/12 05:16:47;;;;;;;15.20;11.50;;;12.30;99.90;;;;;;4881102;29;20290;-72
2023/05/12 05:19:14;;;;;;;14.70;10.27;;;12.30;99.90;;;;;;4897000;29;20090;-71
2023/05/12 05:21:40;;;;;;;13.95;10.05;;;12.30;99.90;;;;;;4898478;29;20040;-70
2023/05/12 05:24:06;;;;;;;14.05;10.45;;;12.40;99.90;;;;;;4908216;29;20095;-69
2023/05/12 05:26:32;;;;;;;15.63;10.60;;;12.40;99.90;;;;;;4891264;29;20044;-70
2023/05/12 05:28:58;;;;;;;12.52;9.98;;;12.50;99.90;;;;;;4891371;29;20051;-70
2023/05/12 05:31:27;;;;;;;10.32;8.50;;;12.50;99.90;;;;;;4891839;29;20032;-70
2023/05/12 05:33:54;;;;;;;13.40;9.63;;;12.60;99.90;;;;;;4890878;29;20056;-67
2023/05/12 05:36:22;;;;;;;12.68;10.15;;;12.70;99.90;;;;;;4883489;29;20226;-68
2023/05/12 05:38:47;;;;;;;12.82;9.73;;;12.70;99.90;;;;;;4872311;29;20061;-68
2023/05/12 05:41:13;;;;;;;13.70;9.57;;;12.70;99.90;;;;;;4872897;29;20048;-68
2023/05/12 05:43:39;;;;;;;11.25;9.10;;;12.80;99.90;;;;;;4872578;29;20073;-68
2023/05/12 05:46:06;;;;;;;11.95;8.55;;;12.90;99.90;;;;;;4872787;29;20032;-68
2023/05/12 05:48:32;;;;;;;12.27;9.57;;;12.90;99.90;;;;;;4872624;29;20037;-69
2023/05/12 05:50:57;;;;;;;12.23;9.43;;;13.00;99.90;;;;;;4872012;29;20043;-70
2023/05/12 05:53:24;;;;;;;13.38;9.07;;;13.00;99.90;;;;;;4872674;29;20025;-68
2023/05/12 05:55:54;;;;;;;10.30;7.72;;;13.10;99.90;;;;;;4871930;29;20032;-68
2023/05/12 05:58:19;;;;;;;13.60;8.60;;;13.10;99.90;;;;;;4899595;29;20092;-70
2023/05/12 06:00:46;;;;;;;12.55;9.02;;;13.20;99.90;;;;;;4874367;29;20084;-70
2023/05/12 06:03:11;;;;;;;13.05;10.02;;;13.30;99.90;;;;;;4869516;29;20057;-70
2023/05/12 06:05:37;;;;;;;11.90;9.48;;;13.30;99.90;;;;;;4881139;29;20033;-69
2023/05/12 06:08:04;;;;;;;12.48;9.18;;;13.30;99.90;;;;;;4869206;29;20045;-69
2023/05/12 06:10:30;;;;;;;11.57;8.82;;;13.20;99.90;;;;;;4869432;29;20060;-69
2023/05/12 06:12:56;;;;;;;10.25;8.20;;;13.20;99.90;;;;;;4870093;29;20338;-70
2023/05/12 06:15:22;;;;;;;13.00;9.48;;;13.30;99.90;;;;;;4870330;29;20033;-70
2023/05/12 06:17:48;;;;;;;10.82;8.90;;;13.30;99.90;;;;;;4868614;29;20029;-69
2023/05/12 06:20:14;;;;;;;11.05;8.32;;;13.40;99.90;;;;;;4872473;29;20039;-69
2023/05/12 06:22:41;;;;;;;13.25;9.07;;;13.40;99.90;;;;;;4888999;29;20017;-69
2023/05/12 06:25:08;;;;;;;11.98;9.02;;;13.40;99.90;;;;;;4888868;29;20048;-69
2023/05/12 06:27:33;;;;;;;10.57;8.30;;;13.40;99.90;;;;;;4880130;29;20314;-69
2023/05/12 06:29:59;;;;;;;11.10;8.50;;;13.50;99.90;;;;;;4881802;29;20040;-69
2023/05/12 06:32:25;;;;;;;9.55;7.63;;;13.60;99.90;;;;;;4870338;29;20206;-69
2023/05/12 06:34:51;;;;;;;11.60;7.90;;;13.70;99.90;;;;;;4869467;29;20025;-69
2023/05/12 06:37:17;;;;;;;16.42;8.35;;;13.80;99.90;;;;;;4872477;29;20033;-69
2023/05/12 06:39:42;;;;;;;11.18;7.82;;;13.80;99.90;;;;;;4891454;29;20054;-68
2023/05/12 06:42:08;;;;;;;11.15;7.32;;;13.90;99.90;;;;;;4875346;29;20064;-68
2023/05/12 06:44:49;;;;;;;11.70;7.55;;;14.00;99.90;;;;;;4872058;29;20109;-68
2023/05/12 06:47:15;;;;;;;11.10;7.28;;;14.00;99.90;;;;;;4872641;29;20044;-69
2023/05/12 06:49:40;;;;;;;10.23;8.15;;;14.20;99.90;;;;;;4873234;29;20109;-69
2023/05/12 06:52:06;;;;;;;10.00;6.90;;;14.20;99.90;;;;;;4873730;29;20040;-68
2023/05/12 06:54:32;;;;;;;8.77;7.20;;;14.30;99.90;;;;;;4877897;29;20025;-67
2023/05/12 06:56:58;;;;;;;12.55;7.10;;;14.40;99.90;;;;;;4879020;29;20029;-69
2023/05/12 06:59:24;;;;;;;8.05;6.57;;;14.50;99.90;;;;;;4882229;29;20036;-68
2023/05/12 07:01:49;;;;;;;7.85;5.65;;;14.70;99.90;;;;;;4876617;29;20246;-69
2023/05/12 07:04:15;;;;;;;9.95;6.88;;;14.80;99.90;;;;;;4875536;29;20028;-68
2023/05/12 07:06:41;;;;;;;8.90;6.43;;;15.00;99.90;;;;;;4891289;29;20048;-68
2023/05/12 07:09:07;;;;;;;9.20;5.85;;;15.10;99.90;;;;;;4892320;29;20039;-68
2023/05/12 07:11:32;;;;;;;9.70;5.38;;;15.30;99.90;;;;;;4891856;29;20143;-69
2023/05/12 07:13:58;;;;;;;9.95;5.57;;;15.40;99.90;;;;;;4874795;29;20163;-68
2023/05/12 07:16:24;;;;;;;7.70;6.10;;;15.50;99.90;;;;;;4892077;29;20104;-68
2023/05/12 07:18:49;;;;;;;8.63;6.20;;;15.50;99.90;;;;;;4890857;29;20218;-68
2023/05/12 07:21:15;;;;;;;6.90;5.57;;;15.60;99.90;;;;;;4892234;29;20039;-69
2023/05/12 07:23:41;;;;;;;7.80;6.07;;;15.80;99.90;;;;;;4891104;29;20021;-70
2023/05/12 07:26:07;;;;;;;8.50;5.88;;;15.90;99.90;;;;;;4891625;29;20044;-69
2023/05/12 07:28:35;;;;;;;6.30;4.97;;;16.20;99.90;;;;;;4895049;29;20092;-68
2023/05/12 07:31:06;;;;;;;7.37;5.00;;;16.20;99.90;;;;;;4895749;29;20037;-68
2023/05/12 07:33:32;;;;;;;8.18;5.07;;;16.00;99.90;;;;;;4891711;29;20494;-67
2023/05/12 07:35:58;;;;;;;7.90;5.25;;;16.20;99.90;;;;;;4891056;29;20310;-68
2023/05/12 07:38:23;;;;;;;8.60;4.72;;;16.30;99.90;;;;;;4896846;29;20036;-70
2023/05/12 07:40:50;;;;;;;7.07;5.43;;;16.40;99.90;;;;;;4897666;29;20068;-68
2023/05/12 07:43:16;;;;;;;8.50;5.78;;;16.40;99.90;;;;;;4891557;29;20033;-68
2023/05/12 07:45:42;;;;;;;6.15;4.72;;;16.40;99.90;;;;;;4891096;29;20043;-68
2023/05/12 07:48:10;;;;;;;7.15;5.40;;;16.60;99.90;;;;;;4891474;29;20037;-69
2023/05/12 07:50:36;;;;;;;6.90;5.00;;;16.80;99.90;;;;;;4890259;29;20052;-69
2023/05/12 07:53:02;;;;;;;7.25;4.85;;;16.80;99.90;;;;;;4890861;29;20025;-69
2023/05/12 07:55:27;;;;;;;7.28;5.40;;;16.80;99.90;;;;;;4895073;29;20035;-69
2023/05/12 07:57:53;;;;;;;6.10;4.82;;;16.70;99.90;;;;;;4905879;29;20091;-69
2023/05/12 08:00:19;;;;;;;6.03;4.28;;;16.70;99.90;;;;;;4893395;29;20282;-70
2023/05/12 08:02:45;;;;;;;6.82;4.72;;;16.90;99.90;;;;;;4908936;29;20075;-69
2023/05/12 08:05:11;;;;;;;4.95;4.38;;;17.10;99.90;;;;;;4909617;29;20036;-69
2023/05/12 08:07:38;;;;;;;6.10;4.03;;;17.30;99.90;;;;;;4909305;29;20370;-69
2023/05/12 08:10:05;;;;;;;5.45;3.97;;;17.60;99.90;;;;;;4909284;29;20337;-70
2023/05/12 08:12:32;;;;;;;5.53;4.50;;;17.90;99.90;;;;;;4909738;29;20029;-70
2023/05/12 08:14:57;;;;;;;5.55;3.55;;;18.00;99.90;;;;;;4909263;29;20033;-68
2023/05/12 08:17:23;;;;;;;4.22;3.10;;;18.00;99.90;;;;;;4909531;29;20059;-69
2023/05/12 08:19:49;;;;;;;4.65;2.80;;;18.10;99.90;;;;;;4908967;29;20206;-69
2023/05/12 08:22:15;;;;;;;6.15;3.70;;;18.30;99.90;;;;;;4903189;29;20020;-69
2023/05/12 08:24:41;;;;;;;5.40;3.85;;;18.40;99.90;;;;;;4893584;29;20033;-69
2023/05/12 08:27:07;;;;;;;4.70;3.40;;;18.50;99.90;;;;;;4890863;29;20036;-69
2023/05/12 08:29:33;;;;;;;3.30;2.70;;;18.70;99.80;;;;;;4898956;29;20196;-69
2023/05/12 08:31:59;;;;;;;5.63;3.10;;;18.70;99.00;;;;;;4890003;29;20109;-69
2023/05/12 08:34:25;;;;;;;3.25;2.42;;;18.70;98.90;;;;;;4890248;29;20036;-69
2023/05/12 08:36:52;;;;;;;3.38;2.42;;;18.50;99.40;;;;;;4889915;29;20041;-68
2023/05/12 08:39:18;;;;;;;5.63;3.17;;;18.50;99.40;;;;;;4902038;29;20032;-69
2023/05/12 08:41:55;;;;;;;5.18;3.10;;;18.50;99.10;;;;;;4889586;29;20036;-68
2023/05/12 08:44:22;;;;;;;3.88;2.92;;;18.30;98.90;;;;;;4890326;29;20269;-68
2023/05/12 08:46:49;;;;;;;5.72;3.03;;;18.50;99.20;;;;;;4889725;29;20099;-68
2023/05/12 08:49:16;;;;;;;4.50;2.83;;;18.40;98.70;;;;;;4890248;29;20037;-68
2023/05/12 08:51:43;;;;;;;4.38;3.20;;;18.60;98.80;;;;;;4889991;29;20210;-68
2023/05/12 08:54:11;;;;;;;5.63;3.17;;;18.50;98.40;;;;;;4890063;29;20398;-68
2023/05/12 08:56:41;;;;;;;4.35;3.10;;;18.60;98.30;;;;;;4895649;29;20052;-69
2023/05/12 08:59:08;;;;;;;3.33;2.45;;;18.90;97.90;;;;;;4908156;29;20028;-68
2023/05/12 09:01:35;;;;;;;4.65;3.17;;;18.60;98.60;;;;;;4907558;29;20028;-68
2023/05/12 09:04:03;;;;;;;5.65;3.70;;;18.70;97.90;;;;;;4908183;29;20318;-68
2023/05/12 09:06:29;;;;;;;5.13;3.60;;;19.00;97.70;;;;;;4908707;29;20044;-68
2023/05/12 09:08:56;;;;;;;4.60;3.80;;;19.10;97.10;;;;;;4907804;29;20051;-68
2023/05/12 09:11:21;;;;;;;4.50;3.95;;;19.10;97.20;;;;;;4908552;29;20032;-68
2023/05/12 09:14:07;;;;;;;4.75;3.45;;;18.90;97.20;;;;;;4908258;29;20035;-68
2023/05/12 09:16:38;;;;;;;5.63;2.80;;;18.80;97.20;;;;;;4908213;29;20037;-68
2023/05/12 09:19:05;;;;;;;3.25;2.33;;;18.90;97.70;;;;;;4908056;29;20323;-70
2023/05/12 09:21:30;;;;;;;3.92;2.20;;;18.90;96.90;;;;;;4904111;29;20050;-69
2023/05/12 09:24:04;;;;;;;3.05;2.42;;;18.80;96.70;;;;;;4895600;29;20033;-69
2023/05/12 09:26:31;;;;;;;4.13;2.67;;;18.70;97.60;;;;;;4889473;29;20231;-70
2023/05/12 09:29:05;;;;;;;4.07;2.70;;;18.50;96.80;;;;;;4895614;29;20041;-69
2023/05/12 09:31:31;;;;;;;3.03;2.42;;;18.20;98.10;;;;;;4891701;29;20117;-69
2023/05/12 09:33:57;;;;;;;4.30;2.30;;;18.00;98.90;;;;;;4907799;29;20040;-71
2023/05/12 09:36:24;;;;;;;7.20;3.20;;;18.20;99.50;;;;;;4907965;29;20079;-69
2023/05/12 09:39:04;;;;;;;3.85;3.22;;;18.10;99.40;;;;;;4907434;29;20020;-70
2023/05/12 09:41:41;;;;;;;4.28;3.35;;;18.10;99.40;;;;;;4891015;29;20073;-67
2023/05/12 09:44:09;;;;;;;6.57;3.50;;;18.20;99.60;;;;;;4888686;29;20319;-69
2023/05/12 09:46:35;;;;;;;3.85;2.92;;;18.50;98.40;;;;;;4889102;29;20032;-68
2023/05/12 09:49:04;;;;;;;3.75;2.72;;;18.80;98.60;;;;;;4888448;29;20040;-69
2023/05/12 09:51:31;;;;;;;4.65;2.38;;;19.30;97.50;;;;;;4889241;29;20386;-69
2023/05/12 09:54:00;;;;;;;9.43;3.00;;;19.70;97.00;;;;;;4888849;29;20036;-68
2023/05/12 09:56:28;;;;;;;3.58;2.60;;;20.10;96.20;;;;;;4892877;29;20044;-69
2023/05/12 09:58:58;;;;;;;3.63;2.58;;;19.80;95.40;;;;;;4888716;29;20252;-68
2023/05/12 10:01:25;;;;;;;5.15;2.17;;;19.80;95.50;;;;;;4888632;29;20223;-68
2023/05/12 10:03:53;;;;;;;2.78;1.98;;;19.80;95.60;;;;;;4872078;29;20044;-70
2023/05/12 10:06:36;;;;;;;2.20;1.58;;;19.80;95.90;;;;;;4889054;29;20059;-67
2023/05/12 10:09:13;;;;;;;3.70;1.58;;;19.60;95.70;;;;;;4888763;29;20048;-68
2023/05/12 10:11:39;;;;;;;6.00;1.90;;;19.40;96.30;;;;;;4877506;29;20081;-69
2023/05/12 10:14:08;;;;;;;2.90;1.70;;;19.30;96.40;;;;;;4889356;29;20223;-72
2023/05/12 10:16:35;;;;;;;3.38;1.83;;;19.10;96.60;;;;;;4872383;29;20081;-69
2023/05/12 10:19:09;;;;;;;2.40;1.77;;;19.10;96.90;;;;;;4868223;29;20335;-69
2023/05/12 10:21:35;;;;;;;3.28;1.70;;;18.80;97.30;;;;;;4868299;29;20048;-73
2023/05/12 10:24:03;;;;;;;3.60;1.75;;;18.60;97.60;;;;;;4867580;29;20033;-68
2023/05/12 10:26:31;;;;;;;4.05;1.77;;;18.90;97.60;;;;;;4868145;29;20117;-68
2023/05/12 10:28:57;;;;;;;2.72;1.73;;;19.20;97.40;;;;;;4867391;29;20037;-69
2023/05/12 10:31:24;;;;;;;2.85;1.55;;;19.50;96.20;;;;;;4867753;29;20180;-67
2023/05/12 10:33:57;;;;;;;2.90;1.95;;;19.70;96.20;;;;;;4867663;29;20060;-68
2023/05/12 10:36:24;;;;;;;3.40;1.65;;;20.00;96.30;;;;;;4867986;29;20108;-68
2023/05/12 10:38:49;;;;;;;4.43;2.00;;;20.50;95.40;;;;;;4867537;29;20081;-68
2023/05/12 10:41:16;;;;;;;2.92;2.08;;;20.30;94.90;;;;;;4850420;29;20248;-73
2023/05/12 10:43:51;;;;;;;3.90;2.05;;;20.40;95.00;;;;;;4867726;29;20049;-70
2023/05/12 10:46:19;;;;;;;3.38;2.35;;;20.30;95.10;;;;;;4868231;29;20078;-68
2023/05/12 10:48:54;;;;;;;3.05;2.35;;;20.30;95.50;;;;;;4906848;29;20079;-68
2023/05/12 10:51:25;;;;;;;3.95;2.78;;;20.00;96.30;;;;;;4890238;29;20213;-68
2023/05/12 10:53:59;;;;;;;5.57;2.97;;;19.70;96.30;;;;;;4906760;29;20089;-68
2023/05/12 10:56:28;;;;;;;2.70;2.00;;;19.50;96.70;;;;;;4906774;29;20032;-69
2023/05/12 10:59:16;;;;;;;3.13;2.10;;;19.40;96.50;;;;;;4906342;29;20041;-69
2023/05/12 11:01:57;;;;;;;3.33;2.28;;;19.20;96.60;;;;;;4906587;29;20053;-69
2023/05/12 11:04:24;;;;;;;3.30;2.00;;;18.80;97.30;;;;;;4907012;29;20060;-68
2023/05/12 11:06:58;;;;;;;4.85;2.17;;;18.60;97.80;;;;;;4906350;29;20080;-68
2023/05/12 11:09:24;;;;;;;6.05;2.30;;;18.50;98.40;;;;;;4906140;29;20081;-67
2023/05/12 11:11:49;;;;;;;5.03;1.90;;;18.50;98.70;;;;;;4906477;29;20330;-69
2023/05/12 11:14:16;;;;;;;4.38;1.77;;;18.40;98.50;;;;;;4906886;29;20032;-68
2023/05/12 11:16:42;;;;;;;2.78;1.70;;;18.20;99.10;;;;;;4892901;29;20060;-68
2023/05/12 11:19:08;;;;;;;2.63;1.60;;;18.20;99.10;;;;;;4898881;29;20041;-69
2023/05/12 11:21:35;;;;;;;3.50;1.73;;;17.70;99.40;;;;;;4887934;29;20100;-69
2023/05/12 11:24:02;;;;;;;3.03;1.60;;;17.50;99.90;;;;;;4898951;29;20041;-68
2023/05/12 11:26:28;;;;;;;2.67;1.90;;;17.40;99.90;;;;;;4903754;29;20044;-69
2023/05/12 11:28:57;;;;;;;2.97;2.00;;;17.40;99.90;;;;;;4897079;29;20041;-68
2023/05/12 11:31:23;;;;;;;3.00;1.65;;;17.50;99.90;;;;;;4898024;29;20053;-68
2023/05/12 11:33:49;;;;;;;4.00;1.92;;;17.50;99.90;;;;;;4891622;29;20041;-68
2023/05/12 11:36:19;;;;;;;3.95;2.10;;;17.60;99.90;;;;;;4891800;29;20318;-68
2023/05/12 11:38:50;;;;;;;2.42;1.73;;;17.80;99.90;;;;;;4893663;29;20049;-68
2023/05/12 11:41:23;;;;;;;2.30;1.55;;;17.90;99.90;;;;;;4891260;29;20069;-69
2023/05/12 11:43:49;;;;;;;3.28;1.60;;;17.90;99.90;;;;;;4897988;29;20108;-67
2023/05/12 11:46:28;;;;;;;2.00;1.45;;;17.60;99.90;;;;;;4890938;29;20017;-67
2023/05/12 11:48:58;;;;;;;3.10;1.88;;;17.60;99.90;;;;;;4897606;29;20041;-68
2023/05/12 11:51:25;;;;;;;3.40;2.15;;;17.40;99.90;;;;;;4909584;29;20188;-68
2023/05/12 11:53:52;;;;;;;2.20;1.55;;;17.10;99.90;;;;;;4892896;29;20243;-68
2023/05/12 11:56:22;;;;;;;2.67;1.80;;;17.00;99.90;;;;;;4909900;29;20036;-69
2023/05/12 11:58:53;;;;;;;4.18;2.05;;;17.00;99.90;;;;;;4909787;29;20028;-68
2023/05/12 12:01:19;;;;;;;3.92;1.98;;;16.80;99.90;;;;;;4895979;29;20040;-69
2023/05/12 12:03:48;;;;;;;2.63;1.80;;;17.00;99.90;;;;;;4891143;29;20029;-68
2023/05/12 12:06:15;;;;;;;3.17;1.92;;;17.30;99.90;;;;;;4890691;29;20040;-68
2023/05/12 12:08:55;;;;;;;2.60;1.85;;;17.70;99.90;;;;;;4899085;29;20381;-67
2023/05/12 12:11:22;;;;;;;2.47;1.50;;;18.10;99.90;;;;;;4895835;29;20013;-67
2023/05/12 12:13:55;;;;;;;2.83;1.63;;;18.40;99.90;;;;;;4874320;29;20037;-69
2023/05/12 12:16:29;;;;;;;4.30;1.80;;;18.60;99.90;;;;;;4890921;29;20032;-71
2023/05/12 12:18:55;;;;;;;2.78;1.63;;;18.90;99.90;;;;;;4890675;29;20037;-68
2023/05/12 12:21:22;;;;;;;3.85;1.95;;;19.10;99.90;;;;;;4890413;29;20096;-67
2023/05/12 12:23:49;;;;;;;2.58;1.77;;;19.60;99.60;;;;;;4899080;29;20052;-67
2023/05/12 12:26:15;;;;;;;3.75;1.52;;;19.90;98.30;;;;;;4890276;29;20079;-67
2023/05/12 12:28:47;;;;;;;2.13;1.10;;;20.40;98.70;;;;;;4894876;29;20194;-67
2023/05/12 12:31:13;;;;;;;2.05;0.90;;;21.00;97.10;;;;;;4894747;29;20323;-68
2023/05/12 12:33:39;;;;;;;3.35;0.70;;;21.20;95.10;;;;;;4890629;29;20067;-67
2023/05/12 12:36:05;;;;;;;1.58;0.88;;;21.50;94.80;;;;;;4889818;29;20310;-68
2023/05/12 12:38:31;;;;;;;1.70;0.98;;;21.70;94.50;;;;;;4896434;29;20044;-67
2023/05/12 12:40:57;;;;;;;1.75;0.80;;;21.90;94.30;;;;;;4896269;29;20053;-67
2023/05/12 12:43:22;;;;;;;1.63;1.00;;;21.90;92.60;;;;;;4895625;29;20373;-68
2023/05/12 12:45:48;;;;;;;1.70;0.60;;;21.80;93.30;;;;;;4908824;29;20052;-68
2023/05/12 12:48:14;;;;;;;1.30;0.40;;;22.00;93.20;;;;;;4908267;29;20040;-70
2023/05/12 12:50:40;;;;;;;0.73;0.40;;;22.30;90.90;;;;;;4909097;29;20038;-69
2023/05/12 12:53:05;;;;;;;2.17;0.30;;;22.70;90.00;;;;;;4908308;29;20104;-68
2023/05/12 12:55:31;;;;;;;2.30;0.60;;;22.90;90.20;;;;;;4908844;29;20033;-69
2023/05/12 12:57:57;;;;;;;1.95;0.55;;;23.30;88.60;;;;;;4892089;29;20064;-68
2023/05/12 13:00:23;;;;;;;2.20;0.60;;;23.30;87.40;;;;;;4898611;29;20069;-68
2023/05/12 13:02:50;;;;;;;1.40;0.60;;;23.20;87.00;;;;;;4907830;29;20057;-68
2023/05/12 13:05:16;;;;;;;1.38;0.80;;;23.00;86.70;;;;;;4908058;29;20391;-69
2023/05/12 13:07:41;;;;;;;7.50;4.30;;;23.10;86.00;;;;;;4908515;29;20036;-68
2023/05/12 13:10:08;;;;;;;4.40;1.90;;;22.80;88.00;;;;;;4902631;29;20036;-68
2023/05/12 13:12:34;;;;;;;1.80;1.23;;;22.50;87.90;;;;;;4890110;29;20033;-67
2023/05/12 13:15:01;;;;;;;2.13;1.45;;;21.60;90.30;;;;;;4893834;29;20036;-70
2023/05/12 13:17:28;;;;;;;3.17;1.55;;;20.70;91.70;;;;;;4890115;29;20337;-71
2023/05/12 13:19:54;;;;;;;2.58;1.75;;;19.90;92.80;;;;;;4889613;29;20077;-72
2023/05/12 13:22:20;;;;;;;3.30;1.75;;;19.20;93.50;;;;;;4894526;29;20114;-71
2023/05/12 13:24:46;;;;;;;2.72;1.60;;;19.00;94.60;;;;;;4895076;29;20227;-71
2023/05/12 13:27:12;;;;;;;4.78;1.83;;;18.70;94.90;;;;;;4888608;29;20342;-71
2023/05/12 13:29:38;;;;;;;4.72;1.92;;;18.50;95.00;;;;;;4889963;29;20028;-72
2023/05/12 13:32:04;;;;;;;4.30;2.13;;;18.40;95.40;;;;;;4889097;29;20068;-71
2023/05/12 13:34:30;;;;;;;2.40;1.60;;;18.50;95.20;;;;;;4889458;29;20024;-72
2023/05/12 13:36:56;;;;;;;3.85;2.10;;;18.30;94.20;;;;;;4889115;29;20045;-72
2023/05/12 13:39:22;;;;;;;2.42;1.67;;;18.30;94.30;;;;;;4891988;29;20046;-71
2023/05/12 13:41:47;;;;;;;3.25;2.08;;;18.30;94.20;;;;;;4889163;29;20037;-71
2023/05/12 13:44:13;;;;;;;2.78;1.75;;;18.30;94.00;;;;;;4888729;29;20059;-70
2023/05/12 13:46:38;;;;;;;3.83;1.80;;;18.10;94.00;;;;;;4857102;29;20036;-70
2023/05/12 13:49:04;;;;;;;3.03;1.90;;;18.10;94.50;;;;;;4888167;29;20345;-71
2023/05/12 13:51:31;;;;;;;4.88;2.20;;;18.10;94.90;;;;;;4889153;29;20029;-70
2023/05/12 13:53:57;;;;;;;5.70;3.25;;;18.40;95.50;;;;;;4888562;29;20053;-70
2023/05/12 13:56:23;;;;;;;4.97;3.33;;;18.60;95.80;;;;;;4889976;29;20021;-70
2023/05/12 13:58:48;;;;;;;5.72;3.47;;;18.70;96.10;;;;;;4907910;29;20172;-70
2023/05/12 14:01:15;;;;;;;5.47;3.50;;;18.80;96.30;;;;;;4893907;29;20025;-70
2023/05/12 14:03:41;;;;;;;6.22;3.88;;;18.80;96.80;;;;;;4888572;29;20251;-71
2023/05/12 14:06:08;;;;;;;8.90;4.65;;;18.80;97.20;;;;;;4888153;29;20037;-70
2023/05/12 14:08:34;;;;;;;5.05;4.03;;;18.80;97.40;;;;;;4893031;29;20041;-70
2023/05/12 14:11:00;;;;;;;7.05;4.35;;;18.60;97.80;;;;;;4888163;29;20041;-70
2023/05/12 14:13:26;;;;;;;8.25;4.30;;;18.60;98.10;;;;;;4889041;29;20037;-70
2023/05/12 14:15:52;;;;;;;6.22;3.50;;;18.60;97.80;;;;;;4888868;29;20342;-69
2023/05/12 14:18:18;;;;;;;6.47;4.30;;;18.50;98.00;;;;;;4888427;29;20047;-68
2023/05/12 14:20:45;;;;;;;5.40;3.47;;;18.70;97.70;;;;;;4888680;29;20088;-69
2023/05/12 14:23:11;;;;;;;5.20;3.63;;;18.90;97.20;;;;;;4896418;29;20322;-69
2023/05/12 14:25:36;;;;;;;5.80;3.40;;;19.00;96.30;;;;;;4888939;29;20054;-70
2023/05/12 14:28:02;;;;;;;4.32;3.17;;;19.20;95.50;;;;;;4888080;29;20036;-70
2023/05/12 14:30:28;;;;;;;3.97;2.85;;;19.20;95.50;;;;;;4872079;29;20041;-69
2023/05/12 14:32:54;;;;;;;5.10;3.50;;;19.50;95.10;;;;;;4888540;29;20029;-70
2023/05/12 14:35:20;;;;;;;4.47;3.15;;;19.70;94.40;;;;;;4887714;29;20036;-70
2023/05/12 14:37:46;;;;;;;4.25;2.95;;;19.80;94.00;;;;;;4889115;29;20077;-70
2023/05/12 14:40:12;;;;;;;4.05;2.80;;;19.90;93.80;;;;;;4900843;29;20029;-68
2023/05/12 14:42:38;;;;;;;4.13;2.80;;;20.10;93.90;;;;;;4889259;29;20052;-69
2023/05/12 14:45:05;;;;;;;5.32;3.08;;;20.30;93.50;;;;;;4887826;29;20092;-69
2023/05/12 14:47:31;;;;;;;5.10;3.20;;;20.20;93.50;;;;;;4888334;29;20235;-69
2023/05/12 14:49:56;;;;;;;4.93;2.90;;;20.00;94.10;;;;;;4888308;29;20033;-69
2023/05/12 14:52:22;;;;;;;5.30;3.28;;;19.80;94.40;;;;;;4888021;29;20322;-69
2023/05/12 14:54:48;;;;;;;3.38;2.55;;;19.60;94.70;;;;;;4888437;29;20041;-69
2023/05/12 14:57:14;;;;;;;4.57;2.88;;;19.20;95.10;;;;;;4887745;29;20063;-69
2023/05/12 14:59:40;;;;;;;4.80;2.60;;;19.10;94.70;;;;;;4889877;29;20036;-69
2023/05/12 15:02:06;;;;;;;4.22;3.03;;;18.70;95.50;;;;;;4891305;29;20049;-69
2023/05/12 15:04:32;;;;;;;4.63;2.78;;;18.70;95.70;;;;;;4891903;29;20043;-69
2023/05/12 15:06:57;;;;;;;3.58;2.45;;;18.60;95.90;;;;;;4891756;29;20029;-69
2023/05/12 15:09:23;;;;;;;4.20;3.20;;;18.50;95.70;;;;;;4895345;29;20141;-70
2023/05/12 15:11:50;;;;;;;4.97;3.10;;;18.60;95.90;;;;;;4891625;29;20271;-69
2023/05/12 15:14:16;;;;;;;8.90;3.22;;;18.60;96.00;;;;;;4891074;29;20033;-69
2023/05/12 15:16:42;;;;;;;4.20;3.03;;;18.60;96.10;;;;;;4891846;29;20097;-69
2023/05/12 15:19:08;;;;;;;5.43;3.42;;;18.40;95.80;;;;;;4891177;29;20338;-70
2023/05/12 15:21:35;;;;;;;5.38;3.17;;;18.20;95.90;;;;;;4891701;29;20028;-69
2023/05/12 15:24:01;;;;;;;4.60;3.08;;;18.10;96.30;;;;;;4899445;29;20033;-70
2023/05/12 15:26:26;;;;;;;6.53;3.33;;;18.00;96.70;;;;;;4891544;29;20310;-69
2023/05/12 15:28:52;;;;;;;5.68;2.95;;;18.00;97.00;;;;;;4891164;29;20066;-69
2023/05/12 15:31:19;;;;;;;5.95;3.10;;;18.10;96.90;;;;;;4890838;29;20032;-70
2023/05/12 15:33:45;;;;;;;5.30;2.80;;;18.00;97.00;;;;;;4891259;29;20052;-70
2023/05/12 15:36:12;;;;;;;3.92;2.70;;;18.20;97.20;;;;;;4890761;29;20343;-69
2023/05/12 15:38:38;;;;;;;4.05;2.80;;;18.10;97.00;;;;;;4891225;29;20268;-69
2023/05/12 15:41:04;;;;;;;4.63;2.72;;;18.20;97.10;;;;;;4890766;29;20056;-70
2023/05/12 15:43:30;;;;;;;3.22;2.33;;;18.00;97.20;;;;;;4891083;29;20044;-72
2023/05/12 15:45:56;;;;;;;3.42;2.40;;;17.90;96.30;;;;;;4891409;29;20037;-75
2023/05/12 15:48:22;;;;;;;2.85;2.20;;;18.00;96.60;;;;;;4904928;29;20048;-69
2023/05/12 15:50:48;;;;;;;4.07;2.30;;;18.00;96.40;;;;;;4891139;29;20052;-70
2023/05/12 15:53:13;;;;;;;3.50;2.20;;;18.10;96.30;;;;;;4890474;29;20032;-78
2023/05/12 15:55:39;;;;;;;3.40;1.95;;;18.00;95.70;;;;;;4891366;29;20040;-70
2023/05/12 15:58:07;;;;;;;3.70;2.08;;;18.00;95.20;;;;;;4890268;29;20036;-69
2023/05/12 16:00:33;;;;;;;4.15;2.20;;;17.90;95.50;;;;;;4890983;29;20040;-71
2023/05/12 16:03:00;;;;;;;3.97;2.05;;;17.80;95.80;;;;;;4890712;29;20044;-70
2023/05/12 16:05:26;;;;;;;3.17;2.53;;;17.60;96.10;;;;;;4890482;29;20086;-72
2023/05/12 16:07:53;;;;;;;2.80;1.90;;;17.60;96.00;;;;;;4890700;29;20046;-71
2023/05/12 16:10:20;;;;;;;4.25;1.60;;;17.70;95.60;;;;;;4891307;29;20223;-75
2023/05/12 16:12:47;;;;;;;4.07;1.80;;;17.60;95.40;;;;;;4890626;29;20048;-71
2023/05/12 16:15:12;;;;;;;3.88;2.20;;;17.50;96.20;;;;;;4896327;29;20247;-72
2023/05/12 16:17:38;;;;;;;2.92;1.73;;;17.60;95.90;;;;;;4909631;29;20066;-70
2023/05/12 16:20:06;;;;;;;3.53;1.80;;;17.70;95.60;;;;;;4908644;29;20040;-71
2023/05/12 16:22:32;;;;;;;2.88;1.70;;;17.70;95.50;;;;;;4909127;29;20092;-72
2023/05/12 16:24:58;;;;;;;3.22;1.83;;;17.60;95.80;;;;;;4892445;29;20035;-70
2023/05/12 16:27:24;;;;;;;4.10;1.80;;;17.50;96.50;;;;;;4889827;29;20045;-70
2023/05/12 16:29:52;;;;;;;3.65;2.15;;;17.50;96.70;;;;;;4890293;29;20132;-70
2023/05/12 16:32:18;;;;;;;3.78;2.15;;;17.40;96.80;;;;;;4889721;29;20037;-70
2023/05/12 16:34:44;;;;;;;8.02;2.65;;;17.40;96.70;;;;;;4890397;29;20076;-70
2023/05/12 16:37:10;;;;;;;3.70;2.50;;;17.30;96.90;;;;;;4890219;29;20256;-70
2023/05/12 16:39:35;;;;;;;3.25;2.38;;;17.20;97.00;;;;;;4890431;29;20028;-69
2023/05/12 16:42:01;;;;;;;2.95;2.00;;;17.00;97.30;;;;;;4890411;29;20188;-72
2023/05/12 16:44:27;;;;;;;4.40;2.53;;;16.90;97.60;;;;;;4889929;29;20311;-69
2023/05/12 16:46:53;;;;;;;4.65;2.47;;;16.80;98.10;;;;;;4890311;29;20035;-70
2023/05/12 16:49:19;;;;;;;3.17;2.40;;;16.70;98.10;;;;;;4889518;29;20053;-72
2023/05/12 16:51:44;;;;;;;3.53;2.10;;;16.60;98.20;;;;;;4873289;29;20387;-70
2023/05/12 16:54:10;;;;;;;3.15;2.03;;;16.60;98.30;;;;;;4873030;29;20037;-70
2023/05/12 16:56:36;;;;;;;3.60;2.17;;;16.50;98.40;;;;;;4889886;29;20264;-70
2023/05/12 16:59:02;;;;;;;2.42;1.92;;;16.50;98.50;;;;;;4890168;29;20219;-70
2023/05/12 17:01:30;;;;;;;3.47;2.40;;;16.50;98.20;;;;;;4903316;29;20036;-70
2023/05/12 17:03:56;;;;;;;3.63;1.95;;;16.50;98.40;;;;;;4873142;29;20120;-71
2023/05/12 17:06:21;;;;;;;3.47;2.30;;;16.50;98.50;;;;;;4888969;29;20025;-70
2023/05/12 17:08:47;;;;;;;3.92;1.88;;;16.50;98.50;;;;;;4894089;29;20075;-71
2023/05/12 17:11:13;;;;;;;3.65;1.92;;;16.60;98.50;;;;;;4901200;29;20211;-71
2023/05/12 17:13:38;;;;;;;3.05;2.08;;;16.60;98.60;;;;;;4899929;29;20092;-70
2023/05/12 17:16:04;;;;;;;2.58;1.92;;;16.50;98.60;;;;;;4895535;29;20282;-70
2023/05/12 17:18:30;;;;;;;3.15;2.30;;;16.50;98.50;;;;;;4888947;29;20040;-70
2023/05/12 17:20:57;;;;;;;4.07;2.03;;;16.40;98.70;;;;;;4890087;29;20081;-70
2023/05/12 17:23:23;;;;;;;4.57;2.30;;;16.40;98.90;;;;;;4896022;29;20078;-71
2023/05/12 17:25:48;;;;;;;3.60;2.25;;;16.40;98.70;;;;;;4889573;29;20037;-71
2023/05/12 17:28:14;;;;;;;3.00;2.03;;;16.40;98.50;;;;;;4888934;29;20311;-71
2023/05/12 17:30:40;;;;;;;3.00;1.88;;;16.40;98.80;;;;;;4889264;29;20040;-70
2023/05/12 17:33:07;;;;;;;3.53;2.30;;;16.40;98.80;;;;;;4889368;29;20307;-71
2023/05/12 17:35:32;;;;;;;3.30;2.28;;;16.40;98.80;;;;;;4889418;29;20331;-71
2023/05/12 17:37:58;;;;;;;3.03;2.03;;;16.40;98.80;;;;;;4889924;29;20033;-71
2023/05/12 17:40:24;;;;;;;5.13;2.30;;;16.40;98.60;;;;;;4888789;29;20322;-71
2023/05/12 17:42:50;;;;;;;2.63;2.10;;;16.20;98.70;;;;;;4889512;29;20307;-71
2023/05/12 17:45:16;;;;;;;2.95;1.95;;;16.10;99.00;;;;;;4888815;29;20264;-70